Rudolph, Wisconsin
Current Conditions -  °F | °C
As of 3:54 PM on Friday 31 Oct 2014 (Local Time) from KISW Reporting Station
Scattered Clouds Scattered Clouds  
Wind Chill: 29°   Ceiling: Unl
Heat Index: 38°   Visibility: 10mi
Dew Point: 16°   Wind: 15mph
Humidity: 41%   Direction: 10°N
Pressure: 30.42"   Gusts: 31mph
Location:  44.5°N, 89.81°W
Report Text: KISW 312054Z AUTO 01013G27KT 10SM SCT048 03/M09 A3042 RMK AO2 PK WND 01027/2046 SLP311 T00331089 53001
Loading
Personal Weather Stations






























Interactive Weather Map
Tropical Storm Tracking
New forecast layout! Learn more

10-Day Weather Forecast

Advertisements
Track Severe Weather on mobile